sensor_id;sensor_type;location;lat;lon;timestamp;P1;durP1;ratioP1;P2;durP2;ratioP2
33094;SDS011;19459;53.044;8.910;2023-09-30T00:00:19;18.13;;;6.35;;
33094;SDS011;19459;53.044;8.910;2023-09-30T00:02:45;19.63;;;6.78;;
33094;SDS011;19459;53.044;8.910;2023-09-30T00:05:11;25.17;;;6.65;;
33094;SDS011;19459;53.044;8.910;2023-09-30T00:07:37;21.13;;;6.30;;
33094;SDS011;19459;53.044;8.910;2023-09-30T00:10:03;22.73;;;5.55;;
33094;SDS011;19459;53.044;8.910;2023-09-30T00:12:29;19.90;;;6.45;;
33094;SDS011;19459;53.044;8.910;2023-09-30T00:14:55;22.45;;;6.38;;
33094;SDS011;19459;53.044;8.910;2023-09-30T00:17:21;22.27;;;5.85;;
33094;SDS011;19459;53.044;8.910;2023-09-30T00:19:47;21.40;;;6.40;;
33094;SDS011;19459;53.044;8.910;2023-09-30T00:22:12;24.25;;;6.45;;
33094;SDS011;19459;53.044;8.910;2023-09-30T00:24:38;20.48;;;5.85;;
33094;SDS011;19459;53.044;8.910;2023-09-30T00:27:04;21.95;;;6.72;;
33094;SDS011;19459;53.044;8.910;2023-09-30T00:29:30;23.83;;;6.32;;
33094;SDS011;19459;53.044;8.910;2023-09-30T00:31:55;32.20;;;6.65;;
33094;SDS011;19459;53.044;8.910;2023-09-30T00:34:21;29.05;;;6.22;;
33094;SDS011;19459;53.044;8.910;2023-09-30T00:36:47;26.10;;;6.53;;
33094;SDS011;19459;53.044;8.910;2023-09-30T00:39:12;30.92;;;6.93;;
33094;SDS011;19459;53.044;8.910;2023-09-30T00:41:38;27.67;;;7.25;;
33094;SDS011;19459;53.044;8.910;2023-09-30T00:44:05;22.63;;;6.40;;
33094;SDS011;19459;53.044;8.910;2023-09-30T00:46:33;21.52;;;6.43;;
33094;SDS011;19459;53.044;8.910;2023-09-30T00:49:02;22.02;;;5.72;;
33094;SDS011;19459;53.044;8.910;2023-09-30T00:51:28;21.13;;;6.55;;
33094;SDS011;19459;53.044;8.910;2023-09-30T00:53:56;18.05;;;5.15;;
33094;SDS011;19459;53.044;8.910;2023-09-30T00:56:25;18.55;;;5.53;;
33094;SDS011;19459;53.044;8.910;2023-09-30T00:58:53;26.27;;;5.65;;
33094;SDS011;19459;53.044;8.910;2023-09-30T01:01:19;20.60;;;7.22;;
33094;SDS011;19459;53.044;8.910;2023-09-30T01:03:46;27.20;;;7.47;;
33094;SDS011;19459;53.044;8.910;2023-09-30T01:06:13;31.17;;;7.05;;
33094;SDS011;19459;53.044;8.910;2023-09-30T01:08:39;22.90;;;7.07;;
33094;SDS011;19459;53.044;8.910;2023-09-30T01:11:06;33.92;;;7.15;;
33094;SDS011;19459;53.044;8.910;2023-09-30T01:13:32;24.35;;;7.20;;
33094;SDS011;19459;53.044;8.910;2023-09-30T01:16:03;26.60;;;7.60;;
33094;SDS011;19459;53.044;8.910;2023-09-30T01:18:35;27.33;;;7.20;;
33094;SDS011;19459;53.044;8.910;2023-09-30T01:21:03;30.63;;;7.45;;
33094;SDS011;19459;53.044;8.910;2023-09-30T01:23:33;27.75;;;8.18;;
33094;SDS011;19459;53.044;8.910;2023-09-30T01:26:07;27.08;;;7.88;;
33094;SDS011;19459;53.044;8.910;2023-09-30T01:28:39;28.00;;;7.72;;
33094;SDS011;19459;53.044;8.910;2023-09-30T01:31:06;30.92;;;7.70;;
33094;SDS011;19459;53.044;8.910;2023-09-30T01:33:32;29.35;;;7.63;;
33094;SDS011;19459;53.044;8.910;2023-09-30T01:35:58;26.30;;;7.95;;
33094;SDS011;19459;53.044;8.910;2023-09-30T01:38:24;24.10;;;7.53;;
33094;SDS011;19459;53.044;8.910;2023-09-30T01:40:51;30.13;;;7.93;;
33094;SDS011;19459;53.044;8.910;2023-09-30T01:43:16;31.45;;;8.65;;
33094;SDS011;19459;53.044;8.910;2023-09-30T01:45:42;24.90;;;7.43;;
33094;SDS011;19459;53.044;8.910;2023-09-30T01:48:09;31.80;;;7.25;;
33094;SDS011;19459;53.044;8.910;2023-09-30T01:50:36;30.98;;;9.02;;
33094;SDS011;19459;53.044;8.910;2023-09-30T01:53:03;26.30;;;8.23;;
33094;SDS011;19459;53.044;8.910;2023-09-30T01:55:31;36.08;;;8.52;;
33094;SDS011;19459;53.044;8.910;2023-09-30T01:57:58;27.60;;;8.32;;
33094;SDS011;19459;53.044;8.910;2023-09-30T02:00:24;25.13;;;7.38;;
33094;SDS011;19459;53.044;8.910;2023-09-30T02:02:50;29.95;;;8.32;;
33094;SDS011;19459;53.044;8.910;2023-09-30T02:05:16;35.03;;;7.90;;
33094;SDS011;19459;53.044;8.910;2023-09-30T02:07:41;28.73;;;7.90;;
33094;SDS011;19459;53.044;8.910;2023-09-30T02:10:08;32.95;;;8.45;;
33094;SDS011;19459;53.044;8.910;2023-09-30T02:12:34;24.08;;;7.03;;
33094;SDS011;19459;53.044;8.910;2023-09-30T02:15:02;22.85;;;7.68;;
33094;SDS011;19459;53.044;8.910;2023-09-30T02:17:29;24.75;;;7.25;;
33094;SDS011;19459;53.044;8.910;2023-09-30T02:19:55;30.10;;;8.88;;
33094;SDS011;19459;53.044;8.910;2023-09-30T02:22:20;31.63;;;7.72;;
33094;SDS011;19459;53.044;8.910;2023-09-30T02:24:46;20.88;;;7.82;;
33094;SDS011;19459;53.044;8.910;2023-09-30T02:27:13;26.15;;;8.20;;
33094;SDS011;19459;53.044;8.910;2023-09-30T02:29:39;23.60;;;7.90;;
33094;SDS011;19459;53.044;8.910;2023-09-30T02:32:05;25.30;;;6.10;;
33094;SDS011;19459;53.044;8.910;2023-09-30T02:34:30;20.92;;;8.00;;
33094;SDS011;19459;53.044;8.910;2023-09-30T02:36:56;26.92;;;8.18;;
33094;SDS011;19459;53.044;8.910;2023-09-30T02:39:25;32.05;;;7.82;;
33094;SDS011;19459;53.044;8.910;2023-09-30T02:41:51;26.13;;;7.38;;
33094;SDS011;19459;53.044;8.910;2023-09-30T02:44:17;27.23;;;7.57;;
33094;SDS011;19459;53.044;8.910;2023-09-30T02:46:43;25.90;;;7.97;;
33094;SDS011;19459;53.044;8.910;2023-09-30T02:49:09;20.50;;;6.97;;
33094;SDS011;19459;53.044;8.910;2023-09-30T02:51:34;28.58;;;7.93;;
33094;SDS011;19459;53.044;8.910;2023-09-30T02:54:02;32.38;;;8.20;;
33094;SDS011;19459;53.044;8.910;2023-09-30T02:56:28;20.88;;;7.20;;
33094;SDS011;19459;53.044;8.910;2023-09-30T02:58:55;26.88;;;8.90;;
33094;SDS011;19459;53.044;8.910;2023-09-30T03:01:21;38.85;;;9.18;;
33094;SDS011;19459;53.044;8.910;2023-09-30T03:03:48;23.13;;;7.22;;
33094;SDS011;19459;53.044;8.910;2023-09-30T03:06:15;16.75;;;6.63;;
33094;SDS011;19459;53.044;8.910;2023-09-30T03:08:40;31.35;;;8.32;;
33094;SDS011;19459;53.044;8.910;2023-09-30T03:11:06;28.30;;;7.85;;
33094;SDS011;19459;53.044;8.910;2023-09-30T03:13:32;23.92;;;7.43;;
33094;SDS011;19459;53.044;8.910;2023-09-30T03:15:58;26.85;;;8.10;;
33094;SDS011;19459;53.044;8.910;2023-09-30T03:18:26;24.33;;;7.05;;
33094;SDS011;19459;53.044;8.910;2023-09-30T03:20:57;19.92;;;7.13;;
33094;SDS011;19459;53.044;8.910;2023-09-30T03:23:28;23.27;;;7.05;;
33094;SDS011;19459;53.044;8.910;2023-09-30T03:25:58;29.27;;;8.73;;
33094;SDS011;19459;53.044;8.910;2023-09-30T03:28:25;28.10;;;8.40;;
33094;SDS011;19459;53.044;8.910;2023-09-30T03:30:52;25.45;;;7.25;;
33094;SDS011;19459;53.044;8.910;2023-09-30T03:33:18;28.67;;;7.00;;
33094;SDS011;19459;53.044;8.910;2023-09-30T03:35:44;18.88;;;6.85;;
33094;SDS011;19459;53.044;8.910;2023-09-30T03:38:10;20.20;;;6.38;;
33094;SDS011;19459;53.044;8.910;2023-09-30T03:40:38;24.83;;;7.13;;
33094;SDS011;19459;53.044;8.910;2023-09-30T03:43:12;23.63;;;7.32;;
33094;SDS011;19459;53.044;8.910;2023-09-30T03:45:41;32.78;;;8.95;;
33094;SDS011;19459;53.044;8.910;2023-09-30T03:48:07;30.60;;;7.70;;
33094;SDS011;19459;53.044;8.910;2023-09-30T03:50:35;31.45;;;7.72;;
33094;SDS011;19459;53.044;8.910;2023-09-30T03:53:04;26.67;;;7.65;;
33094;SDS011;19459;53.044;8.910;2023-09-30T03:55:34;26.85;;;7.25;;
33094;SDS011;19459;53.044;8.910;2023-09-30T03:58:00;22.63;;;7.03;;
33094;SDS011;19459;53.044;8.910;2023-09-30T04:00:27;21.55;;;7.97;;
33094;SDS011;19459;53.044;8.910;2023-09-30T04:02:53;20.40;;;8.80;;
33094;SDS011;19459;53.044;8.910;2023-09-30T04:05:23;34.35;;;8.55;;
33094;SDS011;19459;53.044;8.910;2023-09-30T04:08:01;32.85;;;8.32;;
33094;SDS011;19459;53.044;8.910;2023-09-30T04:10:28;25.98;;;9.02;;
33094;SDS011;19459;53.044;8.910;2023-09-30T04:12:55;22.73;;;8.93;;
33094;SDS011;19459;53.044;8.910;2023-09-30T04:15:21;29.55;;;8.55;;
33094;SDS011;19459;53.044;8.910;2023-09-30T04:17:48;28.13;;;8.93;;
33094;SDS011;19459;53.044;8.910;2023-09-30T04:20:14;20.42;;;7.72;;
33094;SDS011;19459;53.044;8.910;2023-09-30T04:22:48;20.70;;;7.38;;
33094;SDS011;19459;53.044;8.910;2023-09-30T04:25:15;26.42;;;7.10;;
33094;SDS011;19459;53.044;8.910;2023-09-30T04:27:44;22.08;;;6.80;;
33094;SDS011;19459;53.044;8.910;2023-09-30T04:30:13;35.75;;;8.15;;
33094;SDS011;19459;53.044;8.910;2023-09-30T04:32:40;28.25;;;8.43;;
33094;SDS011;19459;53.044;8.910;2023-09-30T04:35:06;26.17;;;8.02;;
33094;SDS011;19459;53.044;8.910;2023-09-30T04:37:33;29.10;;;7.45;;
33094;SDS011;19459;53.044;8.910;2023-09-30T04:40:01;24.10;;;7.35;;
33094;SDS011;19459;53.044;8.910;2023-09-30T04:42:30;23.25;;;7.55;;
33094;SDS011;19459;53.044;8.910;2023-09-30T04:44:56;32.83;;;7.55;;
33094;SDS011;19459;53.044;8.910;2023-09-30T04:47:22;26.60;;;7.82;;
33094;SDS011;19459;53.044;8.910;2023-09-30T04:49:49;35.03;;;7.35;;
33094;SDS011;19459;53.044;8.910;2023-09-30T04:52:16;26.65;;;7.80;;
33094;SDS011;19459;53.044;8.910;2023-09-30T04:54:41;44.80;;;7.95;;
33094;SDS011;19459;53.044;8.910;2023-09-30T04:57:10;25.73;;;7.07;;
33094;SDS011;19459;53.044;8.910;2023-09-30T04:59:35;25.20;;;7.45;;
33094;SDS011;19459;53.044;8.910;2023-09-30T05:02:02;29.10;;;6.88;;
33094;SDS011;19459;53.044;8.910;2023-09-30T05:04:28;15.30;;;6.50;;
33094;SDS011;19459;53.044;8.910;2023-09-30T05:06:54;22.83;;;6.97;;
33094;SDS011;19459;53.044;8.910;2023-09-30T05:09:20;26.02;;;8.23;;
33094;SDS011;19459;53.044;8.910;2023-09-30T05:11:46;17.92;;;6.22;;
33094;SDS011;19459;53.044;8.910;2023-09-30T05:14:12;21.45;;;7.38;;
33094;SDS011;19459;53.044;8.910;2023-09-30T05:16:38;22.50;;;7.13;;
33094;SDS011;19459;53.044;8.910;2023-09-30T05:19:04;21.00;;;6.38;;
33094;SDS011;19459;53.044;8.910;2023-09-30T05:21:29;37.30;;;9.40;;
33094;SDS011;19459;53.044;8.910;2023-09-30T05:23:55;22.27;;;6.70;;
33094;SDS011;19459;53.044;8.910;2023-09-30T05:26:21;29.50;;;7.13;;
33094;SDS011;19459;53.044;8.910;2023-09-30T05:28:47;31.38;;;8.48;;
33094;SDS011;19459;53.044;8.910;2023-09-30T05:31:13;23.58;;;7.00;;
33094;SDS011;19459;53.044;8.910;2023-09-30T05:33:38;22.67;;;6.97;;
33094;SDS011;19459;53.044;8.910;2023-09-30T05:36:04;24.23;;;8.50;;
33094;SDS011;19459;53.044;8.910;2023-09-30T05:38:30;22.45;;;7.40;;
33094;SDS011;19459;53.044;8.910;2023-09-30T05:40:56;23.05;;;7.78;;
33094;SDS011;19459;53.044;8.910;2023-09-30T05:43:24;20.38;;;6.63;;
33094;SDS011;19459;53.044;8.910;2023-09-30T05:45:52;25.55;;;6.72;;
33094;SDS011;19459;53.044;8.910;2023-09-30T05:48:20;27.63;;;9.13;;
33094;SDS011;19459;53.044;8.910;2023-09-30T05:50:46;27.33;;;9.43;;
33094;SDS011;19459;53.044;8.910;2023-09-30T05:53:12;21.25;;;6.88;;
33094;SDS011;19459;53.044;8.910;2023-09-30T05:55:39;18.75;;;7.28;;
33094;SDS011;19459;53.044;8.910;2023-09-30T05:58:14;23.13;;;8.10;;
33094;SDS011;19459;53.044;8.910;2023-09-30T06:00:41;23.33;;;6.65;;
33094;SDS011;19459;53.044;8.910;2023-09-30T06:03:08;21.17;;;7.13;;
33094;SDS011;19459;53.044;8.910;2023-09-30T06:05:38;31.33;;;7.70;;
33094;SDS011;19459;53.044;8.910;2023-09-30T06:08:05;22.67;;;6.53;;
33094;SDS011;19459;53.044;8.910;2023-09-30T06:10:34;23.75;;;7.07;;
33094;SDS011;19459;53.044;8.910;2023-09-30T06:13:00;26.92;;;7.45;;
33094;SDS011;19459;53.044;8.910;2023-09-30T06:15:29;17.95;;;6.07;;
33094;SDS011;19459;53.044;8.910;2023-09-30T06:17:56;16.88;;;6.05;;
33094;SDS011;19459;53.044;8.910;2023-09-30T06:20:22;35.80;;;7.32;;
33094;SDS011;19459;53.044;8.910;2023-09-30T06:22:51;24.90;;;7.85;;
33094;SDS011;19459;53.044;8.910;2023-09-30T06:25:19;19.33;;;7.63;;
33094;SDS011;19459;53.044;8.910;2023-09-30T06:27:47;24.70;;;6.32;;
33094;SDS011;19459;53.044;8.910;2023-09-30T06:30:14;26.42;;;8.63;;
33094;SDS011;19459;53.044;8.910;2023-09-30T06:32:44;30.60;;;8.27;;
33094;SDS011;19459;53.044;8.910;2023-09-30T06:35:10;29.70;;;7.93;;
33094;SDS011;19459;53.044;8.910;2023-09-30T06:37:37;30.38;;;8.05;;
33094;SDS011;19459;53.044;8.910;2023-09-30T06:40:06;25.58;;;7.90;;
33094;SDS011;19459;53.044;8.910;2023-09-30T06:42:34;23.02;;;7.45;;
33094;SDS011;19459;53.044;8.910;2023-09-30T06:45:01;26.45;;;8.73;;
33094;SDS011;19459;53.044;8.910;2023-09-30T06:47:30;19.95;;;7.25;;
33094;SDS011;19459;53.044;8.910;2023-09-30T06:50:01;32.05;;;9.00;;
33094;SDS011;19459;53.044;8.910;2023-09-30T06:52:37;24.42;;;8.30;;
33094;SDS011;19459;53.044;8.910;2023-09-30T06:55:06;28.20;;;8.98;;
33094;SDS011;19459;53.044;8.910;2023-09-30T06:57:36;24.98;;;8.68;;
33094;SDS011;19459;53.044;8.910;2023-09-30T07:00:06;22.13;;;7.35;;
33094;SDS011;19459;53.044;8.910;2023-09-30T07:02:35;21.52;;;8.32;;
33094;SDS011;19459;53.044;8.910;2023-09-30T07:05:02;24.88;;;8.23;;
33094;SDS011;19459;53.044;8.910;2023-09-30T07:07:38;18.98;;;7.50;;
33094;SDS011;19459;53.044;8.910;2023-09-30T07:10:05;27.25;;;7.78;;
33094;SDS011;19459;53.044;8.910;2023-09-30T07:12:32;23.00;;;8.10;;
33094;SDS011;19459;53.044;8.910;2023-09-30T07:15:00;24.83;;;8.35;;
33094;SDS011;19459;53.044;8.910;2023-09-30T07:17:27;27.50;;;7.75;;
33094;SDS011;19459;53.044;8.910;2023-09-30T07:19:53;20.48;;;7.63;;
33094;SDS011;19459;53.044;8.910;2023-09-30T07:22:19;30.05;;;7.90;;
33094;SDS011;19459;53.044;8.910;2023-09-30T07:24:45;25.70;;;8.55;;
33094;SDS011;19459;53.044;8.910;2023-09-30T07:27:11;25.50;;;7.93;;
33094;SDS011;19459;53.044;8.910;2023-09-30T07:29:37;26.40;;;7.45;;
33094;SDS011;19459;53.044;8.910;2023-09-30T07:32:03;22.85;;;7.57;;
33094;SDS011;19459;53.044;8.910;2023-09-30T07:34:29;32.17;;;7.35;;
33094;SDS011;19459;53.044;8.910;2023-09-30T07:36:55;19.15;;;7.93;;
33094;SDS011;19459;53.044;8.910;2023-09-30T07:39:21;29.77;;;7.55;;
33094;SDS011;19459;53.044;8.910;2023-09-30T07:41:46;22.63;;;8.90;;
33094;SDS011;19459;53.044;8.910;2023-09-30T07:44:12;21.13;;;7.55;;
33094;SDS011;19459;53.044;8.910;2023-09-30T07:46:38;19.60;;;6.82;;
33094;SDS011;19459;53.044;8.910;2023-09-30T07:49:04;18.45;;;6.97;;
33094;SDS011;19459;53.044;8.910;2023-09-30T07:51:32;25.77;;;6.95;;
33094;SDS011;19459;53.044;8.910;2023-09-30T07:53:57;14.80;;;6.00;;
33094;SDS011;19459;53.044;8.910;2023-09-30T07:56:23;19.92;;;7.68;;
33094;SDS011;19459;53.044;8.910;2023-09-30T07:58:49;28.48;;;7.20;;
33094;SDS011;19459;53.044;8.910;2023-09-30T08:01:14;12.20;;;6.15;;
33094;SDS011;19459;53.044;8.910;2023-09-30T08:03:40;20.05;;;5.80;;
33094;SDS011;19459;53.044;8.910;2023-09-30T08:06:07;24.67;;;7.25;;
33094;SDS011;19459;53.044;8.910;2023-09-30T08:08:36;16.45;;;6.30;;
33094;SDS011;19459;53.044;8.910;2023-09-30T08:11:01;11.82;;;6.13;;
33094;SDS011;19459;53.044;8.910;2023-09-30T08:13:27;14.02;;;5.95;;
33094;SDS011;19459;53.044;8.910;2023-09-30T08:15:57;15.15;;;5.53;;
33094;SDS011;19459;53.044;8.910;2023-09-30T08:18:24;19.65;;;5.88;;
33094;SDS011;19459;53.044;8.910;2023-09-30T08:20:49;16.90;;;6.45;;
33094;SDS011;19459;53.044;8.910;2023-09-30T08:23:15;14.88;;;5.22;;
33094;SDS011;19459;53.044;8.910;2023-09-30T08:25:41;21.55;;;5.70;;
33094;SDS011;19459;53.044;8.910;2023-09-30T08:28:07;15.55;;;5.18;;
33094;SDS011;19459;53.044;8.910;2023-09-30T08:30:34;15.68;;;5.47;;
33094;SDS011;19459;53.044;8.910;2023-09-30T08:33:01;16.45;;;5.75;;
33094;SDS011;19459;53.044;8.910;2023-09-30T08:35:38;16.77;;;5.88;;
33094;SDS011;19459;53.044;8.910;2023-09-30T08:38:04;12.98;;;4.38;;
33094;SDS011;19459;53.044;8.910;2023-09-30T08:40:30;19.80;;;5.45;;
33094;SDS011;19459;53.044;8.910;2023-09-30T08:42:56;14.88;;;5.50;;
33094;SDS011;19459;53.044;8.910;2023-09-30T08:45:22;16.85;;;5.65;;
33094;SDS011;19459;53.044;8.910;2023-09-30T08:47:49;16.42;;;4.53;;
33094;SDS011;19459;53.044;8.910;2023-09-30T08:50:16;19.67;;;5.38;;
33094;SDS011;19459;53.044;8.910;2023-09-30T08:52:43;17.42;;;5.53;;
33094;SDS011;19459;53.044;8.910;2023-09-30T08:55:12;13.68;;;5.15;;
33094;SDS011;19459;53.044;8.910;2023-09-30T08:57:39;11.82;;;4.38;;
33094;SDS011;19459;53.044;8.910;2023-09-30T09:00:07;14.88;;;5.05;;
33094;SDS011;19459;53.044;8.910;2023-09-30T09:02:39;12.23;;;5.07;;
33094;SDS011;19459;53.044;8.910;2023-09-30T09:05:05;20.60;;;4.63;;
33094;SDS011;19459;53.044;8.910;2023-09-30T09:07:32;18.23;;;5.03;;
33094;SDS011;19459;53.044;8.910;2023-09-30T09:12:30;14.98;;;4.10;;
33094;SDS011;19459;53.044;8.910;2023-09-30T09:14:58;12.95;;;4.53;;
33094;SDS011;19459;53.044;8.910;2023-09-30T09:17:24;20.40;;;4.55;;
33094;SDS011;19459;53.044;8.910;2023-09-30T09:20:09;15.60;;;4.93;;
33094;SDS011;19459;53.044;8.910;2023-09-30T09:22:47;13.80;;;4.72;;
33094;SDS011;19459;53.044;8.910;2023-09-30T09:25:20;16.63;;;4.47;;
33094;SDS011;19459;53.044;8.910;2023-09-30T09:27:49;21.45;;;4.60;;
33094;SDS011;19459;53.044;8.910;2023-09-30T09:33:00;11.43;;;4.10;;
33094;SDS011;19459;53.044;8.910;2023-09-30T09:35:29;11.43;;;3.67;;
33094;SDS011;19459;53.044;8.910;2023-09-30T09:40:37;14.48;;;4.40;;
33094;SDS011;19459;53.044;8.910;2023-09-30T09:43:05;19.15;;;3.85;;
33094;SDS011;19459;53.044;8.910;2023-09-30T09:45:32;13.32;;;3.45;;
33094;SDS011;19459;53.044;8.910;2023-09-30T09:48:00;15.20;;;4.60;;
33094;SDS011;19459;53.044;8.910;2023-09-30T09:50:26;13.85;;;4.07;;
33094;SDS011;19459;53.044;8.910;2023-09-30T09:52:53;17.55;;;4.25;;
33094;SDS011;19459;53.044;8.910;2023-09-30T09:55:21;15.48;;;4.07;;
33094;SDS011;19459;53.044;8.910;2023-09-30T09:57:49;18.95;;;4.20;;
33094;SDS011;19459;53.044;8.910;2023-09-30T10:00:16;10.52;;;3.15;;
33094;SDS011;19459;53.044;8.910;2023-09-30T10:02:45;11.15;;;2.85;;
33094;SDS011;19459;53.044;8.910;2023-09-30T10:05:12;16.90;;;3.42;;
33094;SDS011;19459;53.044;8.910;2023-09-30T10:07:42;18.17;;;3.63;;
33094;SDS011;19459;53.044;8.910;2023-09-30T10:10:28;20.10;;;3.70;;
33094;SDS011;19459;53.044;8.910;2023-09-30T10:12:54;11.98;;;3.40;;
33094;SDS011;19459;53.044;8.910;2023-09-30T10:18:04;11.35;;;3.90;;
33094;SDS011;19459;53.044;8.910;2023-09-30T10:20:35;16.52;;;3.33;;
33094;SDS011;19459;53.044;8.910;2023-09-30T10:28:40;10.25;;;3.33;;
33094;SDS011;19459;53.044;8.910;2023-09-30T10:39:04;13.48;;;3.00;;
33094;SDS011;19459;53.044;8.910;2023-09-30T10:44:43;14.75;;;3.00;;
33094;SDS011;19459;53.044;8.910;2023-09-30T10:49:47;19.25;;;3.65;;
33094;SDS011;19459;53.044;8.910;2023-09-30T10:52:21;10.70;;;2.63;;
33094;SDS011;19459;53.044;8.910;2023-09-30T10:54:48;9.35;;;2.38;;
33094;SDS011;19459;53.044;8.910;2023-09-30T10:57:15;13.05;;;2.70;;
33094;SDS011;19459;53.044;8.910;2023-09-30T11:00:08;10.18;;;2.88;;
33094;SDS011;19459;53.044;8.910;2023-09-30T11:02:47;13.55;;;2.72;;
33094;SDS011;19459;53.044;8.910;2023-09-30T11:05:18;16.77;;;3.22;;
33094;SDS011;19459;53.044;8.910;2023-09-30T11:07:47;14.18;;;3.28;;
33094;SDS011;19459;53.044;8.910;2023-09-30T11:10:17;14.80;;;2.55;;
33094;SDS011;19459;53.044;8.910;2023-09-30T11:12:53;5.65;;;1.73;;
33094;SDS011;19459;53.044;8.910;2023-09-30T11:15:23;10.95;;;2.50;;
33094;SDS011;19459;53.044;8.910;2023-09-30T11:17:51;18.30;;;2.70;;
33094;SDS011;19459;53.044;8.910;2023-09-30T11:20:17;9.00;;;2.45;;
33094;SDS011;19459;53.044;8.910;2023-09-30T11:22:44;11.90;;;3.22;;
33094;SDS011;19459;53.044;8.910;2023-09-30T11:25:15;6.45;;;1.70;;
33094;SDS011;19459;53.044;8.910;2023-09-30T11:27:45;6.13;;;2.33;;
33094;SDS011;19459;53.044;8.910;2023-09-30T11:30:12;18.40;;;2.90;;
33094;SDS011;19459;53.044;8.910;2023-09-30T11:32:38;8.65;;;2.28;;
33094;SDS011;19459;53.044;8.910;2023-09-30T11:35:25;8.60;;;2.25;;
33094;SDS011;19459;53.044;8.910;2023-09-30T11:37:50;10.70;;;2.78;;
33094;SDS011;19459;53.044;8.910;2023-09-30T11:40:17;8.85;;;2.80;;
33094;SDS011;19459;53.044;8.910;2023-09-30T11:45:36;9.48;;;2.45;;
33094;SDS011;19459;53.044;8.910;2023-09-30T11:48:15;15.27;;;3.35;;
33094;SDS011;19459;53.044;8.910;2023-09-30T11:50:48;9.25;;;2.28;;
33094;SDS011;19459;53.044;8.910;2023-09-30T11:53:16;6.00;;;2.17;;
33094;SDS011;19459;53.044;8.910;2023-09-30T11:55:43;12.73;;;2.97;;
33094;SDS011;19459;53.044;8.910;2023-09-30T11:58:08;8.32;;;2.03;;
33094;SDS011;19459;53.044;8.910;2023-09-30T12:00:40;7.55;;;2.50;;
33094;SDS011;19459;53.044;8.910;2023-09-30T12:03:06;12.02;;;2.58;;
33094;SDS011;19459;53.044;8.910;2023-09-30T12:05:32;16.38;;;2.70;;
33094;SDS011;19459;53.044;8.910;2023-09-30T12:07:58;9.80;;;2.40;;
33094;SDS011;19459;53.044;8.910;2023-09-30T12:10:26;11.80;;;2.47;;
33094;SDS011;19459;53.044;8.910;2023-09-30T12:13:07;6.88;;;2.30;;
33094;SDS011;19459;53.044;8.910;2023-09-30T12:15:36;7.45;;;2.25;;
33094;SDS011;19459;53.044;8.910;2023-09-30T12:18:03;8.60;;;2.13;;
33094;SDS011;19459;53.044;8.910;2023-09-30T12:20:29;6.13;;;1.90;;
33094;SDS011;19459;53.044;8.910;2023-09-30T12:22:55;8.38;;;2.10;;
33094;SDS011;19459;53.044;8.910;2023-09-30T12:25:21;8.00;;;2.03;;
33094;SDS011;19459;53.044;8.910;2023-09-30T12:27:48;10.07;;;2.08;;
33094;SDS011;19459;53.044;8.910;2023-09-30T12:30:14;6.82;;;1.83;;
33094;SDS011;19459;53.044;8.910;2023-09-30T12:32:40;10.75;;;2.65;;
33094;SDS011;19459;53.044;8.910;2023-09-30T12:35:06;6.32;;;2.00;;
33094;SDS011;19459;53.044;8.910;2023-09-30T12:37:32;5.72;;;1.70;;
33094;SDS011;19459;53.044;8.910;2023-09-30T12:39:58;11.18;;;2.00;;
33094;SDS011;19459;53.044;8.910;2023-09-30T12:42:24;7.38;;;2.17;;
33094;SDS011;19459;53.044;8.910;2023-09-30T12:44:50;7.88;;;2.17;;
33094;SDS011;19459;53.044;8.910;2023-09-30T12:47:15;5.60;;;2.17;;
33094;SDS011;19459;53.044;8.910;2023-09-30T12:49:41;9.10;;;2.20;;
33094;SDS011;19459;53.044;8.910;2023-09-30T12:52:07;6.10;;;2.10;;
33094;SDS011;19459;53.044;8.910;2023-09-30T12:54:36;7.40;;;1.92;;
33094;SDS011;19459;53.044;8.910;2023-09-30T12:57:02;7.00;;;2.22;;
33094;SDS011;19459;53.044;8.910;2023-09-30T12:59:28;9.32;;;2.40;;
33094;SDS011;19459;53.044;8.910;2023-09-30T13:01:53;5.95;;;1.98;;
33094;SDS011;19459;53.044;8.910;2023-09-30T13:04:19;8.48;;;1.83;;
33094;SDS011;19459;53.044;8.910;2023-09-30T13:06:45;8.70;;;1.70;;
33094;SDS011;19459;53.044;8.910;2023-09-30T13:09:11;6.18;;;2.33;;
33094;SDS011;19459;53.044;8.910;2023-09-30T13:11:37;11.35;;;3.30;;
33094;SDS011;19459;53.044;8.910;2023-09-30T13:14:03;10.93;;;3.28;;
33094;SDS011;19459;53.044;8.910;2023-09-30T13:16:29;18.00;;;2.65;;
33094;SDS011;19459;53.044;8.910;2023-09-30T13:18:55;8.75;;;3.20;;
33094;SDS011;19459;53.044;8.910;2023-09-30T13:21:21;8.95;;;1.92;;
33094;SDS011;19459;53.044;8.910;2023-09-30T13:23:47;8.50;;;2.30;;
33094;SDS011;19459;53.044;8.910;2023-09-30T13:26:12;10.38;;;2.22;;
33094;SDS011;19459;53.044;8.910;2023-09-30T13:28:40;9.38;;;2.45;;
33094;SDS011;19459;53.044;8.910;2023-09-30T13:31:06;4.60;;;1.73;;
33094;SDS011;19459;53.044;8.910;2023-09-30T13:33:32;6.15;;;1.90;;
33094;SDS011;19459;53.044;8.910;2023-09-30T13:35:58;10.65;;;2.20;;
33094;SDS011;19459;53.044;8.910;2023-09-30T13:38:24;6.30;;;2.03;;
33094;SDS011;19459;53.044;8.910;2023-09-30T13:40:49;9.50;;;2.15;;
33094;SDS011;19459;53.044;8.910;2023-09-30T13:43:15;9.55;;;2.22;;
33094;SDS011;19459;53.044;8.910;2023-09-30T13:45:41;7.70;;;2.00;;
33094;SDS011;19459;53.044;8.910;2023-09-30T13:48:06;9.82;;;2.80;;
33094;SDS011;19459;53.044;8.910;2023-09-30T13:50:32;9.32;;;2.17;;
33094;SDS011;19459;53.044;8.910;2023-09-30T13:52:59;11.07;;;2.42;;
33094;SDS011;19459;53.044;8.910;2023-09-30T13:55:26;5.03;;;2.30;;
33094;SDS011;19459;53.044;8.910;2023-09-30T13:57:51;9.15;;;2.33;;
33094;SDS011;19459;53.044;8.910;2023-09-30T14:00:17;9.43;;;2.25;;
33094;SDS011;19459;53.044;8.910;2023-09-30T14:02:43;8.82;;;2.35;;
33094;SDS011;19459;53.044;8.910;2023-09-30T14:05:09;13.18;;;2.60;;
33094;SDS011;19459;53.044;8.910;2023-09-30T14:07:39;9.98;;;3.28;;
33094;SDS011;19459;53.044;8.910;2023-09-30T14:10:30;10.02;;;2.38;;
33094;SDS011;19459;53.044;8.910;2023-09-30T14:13:02;9.10;;;2.35;;
33094;SDS011;19459;53.044;8.910;2023-09-30T14:15:29;10.73;;;2.80;;
33094;SDS011;19459;53.044;8.910;2023-09-30T14:18:01;7.35;;;1.95;;
33094;SDS011;19459;53.044;8.910;2023-09-30T14:20:31;10.05;;;2.22;;
33094;SDS011;19459;53.044;8.910;2023-09-30T14:22:58;14.50;;;3.00;;
33094;SDS011;19459;53.044;8.910;2023-09-30T14:25:28;10.52;;;2.40;;
33094;SDS011;19459;53.044;8.910;2023-09-30T14:27:54;10.25;;;2.90;;
33094;SDS011;19459;53.044;8.910;2023-09-30T14:30:21;14.27;;;3.17;;
33094;SDS011;19459;53.044;8.910;2023-09-30T14:32:47;9.27;;;2.78;;
33094;SDS011;19459;53.044;8.910;2023-09-30T14:35:13;11.77;;;2.28;;
33094;SDS011;19459;53.044;8.910;2023-09-30T14:37:38;12.45;;;2.65;;
33094;SDS011;19459;53.044;8.910;2023-09-30T14:40:05;11.02;;;2.90;;
33094;SDS011;19459;53.044;8.910;2023-09-30T14:42:36;10.15;;;2.75;;
33094;SDS011;19459;53.044;8.910;2023-09-30T14:45:07;10.15;;;2.28;;
33094;SDS011;19459;53.044;8.910;2023-09-30T14:47:33;8.27;;;2.50;;
33094;SDS011;19459;53.044;8.910;2023-09-30T14:49:59;10.20;;;3.30;;
33094;SDS011;19459;53.044;8.910;2023-09-30T14:52:27;11.75;;;2.83;;
33094;SDS011;19459;53.044;8.910;2023-09-30T14:54:53;14.05;;;2.30;;
33094;SDS011;19459;53.044;8.910;2023-09-30T14:57:20;11.68;;;3.00;;
33094;SDS011;19459;53.044;8.910;2023-09-30T14:59:47;13.30;;;3.58;;
33094;SDS011;19459;53.044;8.910;2023-09-30T15:02:13;14.38;;;2.72;;
33094;SDS011;19459;53.044;8.910;2023-09-30T15:04:39;14.00;;;2.83;;
33094;SDS011;19459;53.044;8.910;2023-09-30T15:07:04;10.80;;;2.88;;
33094;SDS011;19459;53.044;8.910;2023-09-30T15:09:30;12.00;;;2.70;;